createdAt,value
2022-09-09T00:00:36.901Z, 46.79
2022-09-09T00:01:36.941Z, 46.91
2022-09-09T00:02:37.213Z, 46.70
2022-09-09T00:03:37.137Z, 46.64
2022-09-09T00:04:37.028Z, 46.70
2022-09-09T00:05:37.061Z, 46.74
2022-09-09T00:06:37.145Z, 46.72
2022-09-09T00:07:37.140Z, 46.65
2022-09-09T00:08:37.240Z, 46.66
2022-09-09T00:09:37.213Z, 46.74
2022-09-09T00:10:37.274Z, 46.73
2022-09-09T00:11:37.257Z, 46.48
2022-09-09T00:12:37.286Z, 46.48
2022-09-09T00:13:37.325Z, 46.74
2022-09-09T00:14:37.341Z, 46.75
2022-09-09T00:15:37.408Z, 46.70
2022-09-09T00:16:37.393Z, 46.62
2022-09-09T00:17:37.430Z, 46.74
2022-09-09T00:18:37.512Z, 46.68
2022-09-09T00:19:37.550Z, 46.52
2022-09-09T00:20:37.603Z, 46.68
2022-09-09T00:21:37.592Z, 46.58
2022-09-09T00:22:37.609Z, 46.55
2022-09-09T00:23:37.720Z, 46.68
2022-09-09T00:24:37.689Z, 46.91
2022-09-09T00:25:37.717Z, 46.89
2022-09-09T00:26:37.736Z, 46.94
2022-09-09T00:27:37.765Z, 46.88
2022-09-09T00:28:37.831Z, 46.91
2022-09-09T00:29:37.830Z, 46.83
2022-09-09T00:30:37.975Z, 46.67
2022-09-09T00:31:37.890Z, 46.75
2022-09-09T00:32:37.983Z, 46.74
2022-09-09T00:33:37.959Z, 46.76
2022-09-09T00:34:38.044Z, 46.84
2022-09-09T00:35:38.089Z, 46.85
2022-09-09T00:36:38.066Z, 47.00
2022-09-09T00:37:38.099Z, 46.90
2022-09-09T00:38:38.125Z, 46.69
2022-09-09T00:39:38.219Z, 46.69
2022-09-09T00:40:38.180Z, 46.80
2022-09-09T00:41:38.250Z, 46.80
2022-09-09T00:42:38.254Z, 46.79
2022-09-09T00:43:38.306Z, 46.92
2022-09-09T00:44:38.361Z, 46.87
2022-09-09T00:45:38.392Z, 47.04
2022-09-09T00:46:38.575Z, 46.83
2022-09-09T00:47:38.521Z, 46.79
2022-09-09T00:48:38.531Z, 46.89
2022-09-09T00:49:38.521Z, 46.91
2022-09-09T00:50:38.560Z, 46.91
2022-09-09T00:51:38.574Z, 46.81
2022-09-09T00:52:38.599Z, 46.78
2022-09-09T00:53:38.694Z, 46.79
2022-09-09T00:54:38.698Z, 46.77
2022-09-09T00:55:38.729Z, 46.72
2022-09-09T00:56:38.769Z, 46.87
2022-09-09T00:57:38.813Z, 46.79
2022-09-09T00:58:38.840Z, 46.78
2022-09-09T00:59:38.883Z, 46.83
2022-09-09T01:00:38.923Z, 46.71
2022-09-09T01:01:38.959Z, 46.88
2022-09-09T01:02:39.058Z, 46.97
2022-09-09T01:03:38.992Z, 47.10
2022-09-09T01:04:38.989Z, 47.02
2022-09-09T01:05:39.027Z, 47.06
2022-09-09T01:06:39.068Z, 46.91
2022-09-09T01:07:39.163Z, 46.85
2022-09-09T01:08:39.188Z, 46.90
2022-09-09T01:09:39.170Z, 46.69
2022-09-09T01:10:39.250Z, 46.91
2022-09-09T01:11:39.230Z, 46.73
2022-09-09T01:12:39.258Z, 46.82
2022-09-09T01:13:39.287Z, 46.93
2022-09-09T01:14:39.357Z, 47.26
2022-09-09T01:15:39.352Z, 47.06
2022-09-09T01:16:39.494Z, 47.09
2022-09-09T01:17:39.490Z, 47.04
2022-09-09T01:18:39.463Z, 47.00
2022-09-09T01:19:39.536Z, 47.02
2022-09-09T01:20:39.525Z, 47.16
2022-09-09T01:21:39.555Z, 47.10
2022-09-09T01:22:39.597Z, 46.91
2022-09-09T01:23:39.679Z, 46.94
2022-09-09T01:24:39.671Z, 46.92
2022-09-09T01:25:39.665Z, 46.86
2022-09-09T01:26:39.670Z, 46.92
2022-09-09T01:27:39.719Z, 47.13
2022-09-09T01:28:39.811Z, 47.00
2022-09-09T01:29:39.778Z, 47.00
2022-09-09T01:30:39.936Z, 47.10
2022-09-09T01:31:39.864Z, 47.06
2022-09-09T01:32:39.926Z, 47.20
2022-09-09T01:33:39.901Z, 47.09
2022-09-09T01:34:39.924Z, 47.09
2022-09-09T01:35:39.965Z, 47.29
2022-09-09T01:36:40.005Z, 47.12
2022-09-09T01:37:40.039Z, 46.99
2022-09-09T01:38:40.122Z, 46.98
2022-09-09T01:39:40.168Z, 47.12
2022-09-09T01:40:40.168Z, 47.05
2022-09-09T01:41:40.152Z, 47.13
2022-09-09T01:42:40.225Z, 47.18
2022-09-09T01:43:40.281Z, 47.11
2022-09-09T01:44:40.336Z, 47.09
2022-09-09T01:45:40.454Z, 47.32
2022-09-09T01:46:40.403Z, 47.23
2022-09-09T01:47:40.439Z, 47.22
2022-09-09T01:48:40.412Z, 47.18
2022-09-09T01:49:40.432Z, 47.01
2022-09-09T01:50:40.479Z, 47.28
2022-09-09T01:51:40.530Z, 47.49
2022-09-09T01:52:40.569Z, 47.17
2022-09-09T01:53:40.774Z, 47.20
2022-09-09T01:54:40.635Z, 47.18
2022-09-09T01:55:40.775Z, 47.29
2022-09-09T01:56:40.771Z, 47.15
2022-09-09T01:57:40.772Z, 47.30
2022-09-09T01:58:40.815Z, 47.34
2022-09-09T01:59:40.796Z, 47.19
2022-09-09T02:00:40.826Z, 47.25
2022-09-09T02:01:40.909Z, 47.24
2022-09-09T02:02:40.964Z, 47.07
2022-09-09T02:03:40.908Z, 47.28
2022-09-09T02:04:40.982Z, 47.36
2022-09-09T02:05:41.060Z, 47.11
2022-09-09T02:06:41.109Z, 47.21
2022-09-09T02:07:41.082Z, 47.11
2022-09-09T02:08:41.103Z, 47.29
2022-09-09T02:09:41.199Z, 47.13
2022-09-09T02:10:41.256Z, 47.08
2022-09-09T02:11:41.216Z, 47.28
2022-09-09T02:12:41.246Z, 47.22
2022-09-09T02:13:41.291Z, 47.25
2022-09-09T02:14:41.360Z, 47.11
2022-09-09T02:15:41.349Z, 47.30
2022-09-09T02:16:41.453Z, 47.48
2022-09-09T02:17:41.460Z, 47.27
2022-09-09T02:18:41.453Z, 47.22
2022-09-09T02:19:41.470Z, 47.23
2022-09-09T02:20:41.559Z, 47.17
2022-09-09T02:21:41.606Z, 47.22
2022-09-09T02:22:41.616Z, 47.35
2022-09-09T02:23:41.616Z, 47.37
2022-09-09T02:24:41.636Z, 47.36
2022-09-09T02:25:41.729Z, 47.48
2022-09-09T02:26:41.706Z, 47.30
2022-09-09T02:27:41.742Z, 47.28
2022-09-09T02:28:41.758Z, 47.23
2022-09-09T02:29:41.853Z, 47.31
2022-09-09T02:30:41.939Z, 47.18
2022-09-09T02:31:41.871Z, 47.31
2022-09-09T02:32:41.969Z, 47.44
2022-09-09T02:33:41.945Z, 47.31
2022-09-09T02:34:41.961Z, 47.33
2022-09-09T02:35:42.054Z, 47.59
2022-09-09T02:36:42.113Z, 47.40
2022-09-09T02:37:42.074Z, 47.37
2022-09-09T02:38:42.147Z, 47.41
2022-09-09T02:39:42.237Z, 47.41
2022-09-09T02:40:42.165Z, 47.36
2022-09-09T02:41:42.217Z, 47.39
2022-09-09T02:42:42.321Z, 47.55
2022-09-09T02:43:42.298Z, 47.64
2022-09-09T02:44:42.318Z, 47.48
2022-09-09T02:45:42.431Z, 47.58
2022-09-09T02:46:42.393Z, 47.54
2022-09-09T02:47:42.425Z, 47.55
2022-09-09T02:48:42.440Z, 47.56
2022-09-09T02:49:42.488Z, 47.65
2022-09-09T02:50:42.539Z, 47.61
2022-09-09T02:51:42.566Z, 47.61
2022-09-09T02:52:42.607Z, 47.71
2022-09-09T02:53:42.699Z, 47.57
2022-09-09T02:54:42.721Z, 47.71
2022-09-09T02:55:42.728Z, 47.67
2022-09-09T02:56:42.723Z, 47.68
2022-09-09T02:57:42.749Z, 47.66
2022-09-09T02:58:42.789Z, 47.72
2022-09-09T02:59:42.893Z, 47.56
2022-09-09T03:00:42.943Z, 47.72
2022-09-09T03:01:42.884Z, 47.61
2022-09-09T03:02:43.004Z, 47.83
2022-09-09T03:03:42.927Z, 47.77
2022-09-09T03:04:42.979Z, 47.68
2022-09-09T03:05:44.150Z, 47.66
2022-09-09T03:06:43.109Z, 47.71
2022-09-09T03:07:43.095Z, 47.72
2022-09-09T03:08:49.277Z, 47.73
2022-09-09T03:09:43.160Z, 47.65
2022-09-09T03:10:43.216Z, 47.85
2022-09-09T03:11:43.221Z, 47.83
2022-09-09T03:12:43.336Z, 47.63
2022-09-09T03:13:43.378Z, 47.76
2022-09-09T03:14:43.407Z, 47.86
2022-09-09T03:15:43.401Z, 47.74
2022-09-09T03:16:43.545Z, 47.69
2022-09-09T03:17:43.434Z, 47.60
2022-09-09T03:18:43.452Z, 47.75
2022-09-09T03:19:43.497Z, 47.97
2022-09-09T03:20:43.535Z, 47.58
2022-09-09T03:21:43.629Z, 47.75
2022-09-09T03:22:43.606Z, 47.72
2022-09-09T03:23:43.666Z, 47.88
2022-09-09T03:24:43.670Z, 47.73
2022-09-09T03:25:43.709Z, 47.81
2022-09-09T03:26:43.746Z, 47.83
2022-09-09T03:27:43.749Z, 47.78
2022-09-09T03:28:43.790Z, 48.00
2022-09-09T03:29:43.837Z, 47.94
2022-09-09T03:30:43.926Z, 47.84
2022-09-09T03:31:44.032Z, 47.99
2022-09-09T03:32:48.318Z, 47.89
2022-09-09T03:33:43.938Z, 47.75
2022-09-09T03:34:43.974Z, 47.93
2022-09-09T03:35:44.079Z, 47.83
2022-09-09T03:36:44.123Z, 48.02
2022-09-09T03:37:44.101Z, 48.04
2022-09-09T03:38:44.187Z, 47.99
2022-09-09T03:39:44.267Z, 47.91
2022-09-09T03:40:44.193Z, 48.04
2022-09-09T03:41:44.209Z, 48.14
2022-09-09T03:42:44.303Z, 47.77
2022-09-09T03:43:44.311Z, 48.01
2022-09-09T03:44:44.310Z, 48.39
2022-09-09T03:45:44.386Z, 48.06
2022-09-09T03:46:44.380Z, 48.08
2022-09-09T03:47:44.417Z, 47.87
2022-09-09T03:48:44.499Z, 47.88
2022-09-09T03:49:44.531Z, 47.98
2022-09-09T03:50:44.514Z, 47.90
2022-09-09T03:51:44.600Z, 48.10
2022-09-09T03:52:44.585Z, 48.07
2022-09-09T03:53:44.630Z, 47.99
2022-09-09T03:54:44.715Z, 48.13
2022-09-09T03:55:44.681Z, 48.04
2022-09-09T03:56:44.723Z, 48.15
2022-09-09T03:57:44.730Z, 48.15
2022-09-09T03:58:44.778Z, 48.09
2022-09-09T03:59:44.890Z, 48.16
2022-09-09T04:00:44.895Z, 48.20
2022-09-09T04:01:44.985Z, 48.13
2022-09-09T04:02:44.932Z, 48.33
2022-09-09T04:03:45.014Z, 48.23
2022-09-09T04:04:45.038Z, 48.30
2022-09-09T04:05:45.005Z, 48.26
2022-09-09T04:06:45.039Z, 48.41
2022-09-09T04:07:45.138Z, 48.16
2022-09-09T04:08:45.111Z, 48.33
2022-09-09T04:09:45.174Z, 48.40
2022-09-09T04:10:45.161Z, 48.30
2022-09-09T04:11:45.190Z, 48.34
2022-09-09T04:12:49.350Z, 48.23
2022-09-09T04:13:45.236Z, 48.46
2022-09-09T04:14:45.274Z, 48.79
2022-09-09T04:15:45.371Z, 48.47
2022-09-09T04:16:45.484Z, 48.50
2022-09-09T04:17:45.389Z, 48.54
2022-09-09T04:18:45.409Z, 48.60
2022-09-09T04:19:45.446Z, 48.45
2022-09-09T04:20:45.493Z, 48.63
2022-09-09T04:21:45.588Z, 48.51
2022-09-09T04:22:45.576Z, 48.73
2022-09-09T04:23:45.665Z, 48.63
2022-09-09T04:24:48.689Z, 48.63
2022-09-09T04:25:45.671Z, 48.58
2022-09-09T04:26:45.772Z, 48.61
2022-09-09T04:27:45.743Z, 48.60
2022-09-09T04:28:45.818Z, 48.56
2022-09-09T04:29:45.808Z, 48.70
2022-09-09T04:30:45.904Z, 48.68
2022-09-09T04:31:45.972Z, 48.74
2022-09-09T04:32:45.976Z, 48.58
2022-09-09T04:33:45.965Z, 48.62
2022-09-09T04:34:46.138Z, 48.53
2022-09-09T04:35:46.030Z, 48.70
2022-09-09T04:36:46.026Z, 48.58
2022-09-09T04:37:46.117Z, 48.62
2022-09-09T04:38:46.110Z, 48.96
2022-09-09T04:39:46.266Z, 48.61
2022-09-09T04:40:46.199Z, 48.67
2022-09-09T04:41:46.200Z, 48.78
2022-09-09T04:42:46.254Z, 48.67
2022-09-09T04:43:46.244Z, 48.56
2022-09-09T04:44:46.335Z, 48.64
2022-09-09T04:45:46.419Z, 48.72
2022-09-09T04:46:46.443Z, 48.72
2022-09-09T04:47:46.463Z, 48.74
2022-09-09T04:48:46.470Z, 48.83
2022-09-09T04:49:46.494Z, 48.81
2022-09-09T04:50:46.494Z, 48.76
2022-09-09T04:51:46.495Z, 48.84
2022-09-09T04:52:46.546Z, 48.66
2022-09-09T04:53:46.647Z, 48.93
2022-09-09T04:54:46.622Z, 48.88
2022-09-09T04:55:46.697Z, 48.99
2022-09-09T04:56:46.722Z, 48.93
2022-09-09T04:57:46.722Z, 49.02
2022-09-09T04:58:46.744Z, 48.90
2022-09-09T04:59:46.763Z, 48.97
2022-09-09T05:00:46.925Z, 48.96
2022-09-09T05:01:46.932Z, 49.04
2022-09-09T05:02:46.880Z, 48.94
2022-09-09T05:03:46.917Z, 49.15
2022-09-09T05:04:46.978Z, 49.11
2022-09-09T05:05:47.018Z, 49.03
2022-09-09T05:06:47.019Z, 48.98
2022-09-09T05:07:47.072Z, 48.95
2022-09-09T05:08:47.089Z, 49.06
2022-09-09T05:09:47.130Z, 49.04
2022-09-09T05:10:47.174Z, 49.09
2022-09-09T05:11:47.194Z, 49.06
2022-09-09T05:12:47.225Z, 49.16
2022-09-09T05:13:47.242Z, 49.24
2022-09-09T05:14:47.282Z, 49.12
2022-09-09T05:15:47.330Z, 49.10
2022-09-09T05:16:47.447Z, 48.98
2022-09-09T05:17:47.393Z, 49.07
2022-09-09T05:18:47.428Z, 49.03
2022-09-09T05:19:47.456Z, 49.15
2022-09-09T05:20:47.479Z, 49.20
2022-09-09T05:21:47.515Z, 49.04
2022-09-09T05:22:47.541Z, 49.04
2022-09-09T05:23:47.577Z, 48.85
2022-09-09T05:24:47.622Z, 48.82
2022-09-09T05:25:47.650Z, 48.96
2022-09-09T05:26:47.675Z, 49.08
2022-09-09T05:27:47.730Z, 49.29
2022-09-09T05:28:47.729Z, 49.16
2022-09-09T05:29:47.850Z, 48.97
2022-09-09T05:30:47.813Z, 49.10
2022-09-09T05:31:47.986Z, 48.99
2022-09-09T05:32:47.885Z, 49.03
2022-09-09T05:33:47.936Z, 48.91
2022-09-09T05:34:47.926Z, 49.23
2022-09-09T05:35:48.015Z, 48.98
2022-09-09T05:36:48.052Z, 49.01
2022-09-09T05:37:48.034Z, 49.16
2022-09-09T05:38:48.082Z, 49.08
2022-09-09T05:39:48.200Z, 49.27
2022-09-09T05:40:48.170Z, 49.11
2022-09-09T05:41:48.199Z, 49.15
2022-09-09T05:42:48.240Z, 49.06
2022-09-09T05:43:48.255Z, 49.18
2022-09-09T05:44:48.287Z, 49.10
2022-09-09T05:45:48.324Z, 49.26
2022-09-09T05:46:48.554Z, 49.10
2022-09-09T05:47:48.420Z, 49.09
2022-09-09T05:48:48.506Z, 49.21
2022-09-09T05:49:48.498Z, 49.13
2022-09-09T05:50:48.579Z, 49.25
2022-09-09T05:51:48.529Z, 49.34
2022-09-09T05:52:48.574Z, 49.27
2022-09-09T05:53:48.662Z, 49.13
2022-09-09T05:54:48.713Z, 49.45
2022-09-09T05:55:48.704Z, 49.35
2022-09-09T05:56:51.567Z, 49.32
2022-09-09T05:57:48.773Z, 49.24
2022-09-09T05:58:48.835Z, 49.32
2022-09-09T05:59:48.823Z, 49.33
2022-09-09T06:00:48.859Z, 49.37
2022-09-09T06:01:49.025Z, 49.54
2022-09-09T06:02:49.178Z, 49.32
2022-09-09T06:03:48.978Z, 49.21
2022-09-09T06:04:49.052Z, 49.40
2022-09-09T06:05:49.048Z, 49.35
2022-09-09T06:06:49.079Z, 49.41
2022-09-09T06:07:49.184Z, 49.29
2022-09-09T06:08:49.142Z, 49.38
2022-09-09T06:09:49.180Z, 49.28
2022-09-09T06:10:49.282Z, 49.27
2022-09-09T06:11:49.283Z, 49.22
2022-09-09T06:12:49.312Z, 49.21
2022-09-09T06:13:49.392Z, 49.33
2022-09-09T06:14:49.376Z, 49.38
2022-09-09T06:15:49.427Z, 49.45
2022-09-09T06:16:49.441Z, 49.42
2022-09-09T06:17:49.476Z, 49.32
2022-09-09T06:18:49.511Z, 49.90
2022-09-09T06:19:49.537Z, 49.18
2022-09-09T06:20:49.588Z, 49.36
2022-09-09T06:21:49.647Z, 49.28
2022-09-09T06:22:49.654Z, 49.38
2022-09-09T06:23:49.657Z, 49.45
2022-09-09T06:24:49.729Z, 49.27
2022-09-09T06:25:49.733Z, 49.97
2022-09-09T06:26:49.818Z, 49.53
2022-09-09T06:27:49.829Z, 49.15
2022-09-09T06:28:49.851Z, 49.50
2022-09-09T06:29:49.878Z, 49.84
2022-09-09T06:30:49.906Z, 49.54
2022-09-09T06:31:49.967Z, 50.04
2022-09-09T06:32:50.023Z, 50.25
2022-09-09T06:33:50.080Z, 50.06
2022-09-09T06:34:50.055Z, 50.03
2022-09-09T06:35:50.115Z, 50.16
2022-09-09T06:36:50.111Z, 50.26
2022-09-09T06:37:50.145Z, 49.64
2022-09-09T06:38:50.161Z, 49.95
2022-09-09T06:39:50.237Z, 49.85
2022-09-09T06:40:50.223Z, 49.95
2022-09-09T06:41:50.279Z, 49.94
2022-09-09T06:42:50.309Z, 50.30
2022-09-09T06:43:50.327Z, 50.06
2022-09-09T06:44:50.360Z, 49.85
2022-09-09T06:45:50.383Z, 49.80
2022-09-09T06:46:50.496Z, 49.71
2022-09-09T06:47:50.512Z, 49.79
2022-09-09T06:48:50.494Z, 49.89
2022-09-09T06:49:50.525Z, 49.93
2022-09-09T06:50:50.619Z, 49.81
2022-09-09T06:51:50.600Z, 49.85
2022-09-09T06:52:50.641Z, 50.17
2022-09-09T06:53:50.660Z, 50.11
2022-09-09T06:54:50.744Z, 49.94
2022-09-09T06:55:50.735Z, 49.94
2022-09-09T06:56:50.812Z, 50.07
2022-09-09T06:57:50.785Z, 49.75
2022-09-09T06:58:50.818Z, 49.81
2022-09-09T06:59:50.846Z, 49.85
2022-09-09T07:00:50.997Z, 49.84
2022-09-09T07:01:55.370Z, 49.87
2022-09-09T07:02:50.957Z, 50.12
2022-09-09T07:03:50.983Z, 49.93
2022-09-09T07:04:51.063Z, 49.90
2022-09-09T07:05:51.050Z, 50.08
2022-09-09T07:06:51.140Z, 49.85
2022-09-09T07:07:51.180Z, 49.79
2022-09-09T07:08:56.221Z, 49.93
2022-09-09T07:09:51.161Z, 49.83
2022-09-09T07:10:51.199Z, 49.72
2022-09-09T07:11:51.250Z, 50.05
2022-09-09T07:12:51.292Z, 49.92
2022-09-09T07:13:51.322Z, 49.75
2022-09-09T07:14:51.361Z, 49.89
2022-09-09T07:15:51.438Z, 49.69
2022-09-09T07:16:51.421Z, 49.87
2022-09-09T07:17:51.480Z, 49.91
2022-09-09T07:18:51.564Z, 49.82
2022-09-09T07:19:51.539Z, 49.76
2022-09-09T07:20:51.633Z, 49.89
2022-09-09T07:21:51.608Z, 49.85
2022-09-09T07:22:51.691Z, 49.86
2022-09-09T07:23:51.654Z, 49.81
2022-09-09T07:24:51.701Z, 49.99
2022-09-09T07:25:51.712Z, 49.97
2022-09-09T07:26:51.758Z, 50.18
2022-09-09T07:27:51.800Z, 49.91
2022-09-09T07:28:51.823Z, 50.03
2022-09-09T07:29:53.098Z, 50.15
2022-09-09T07:30:51.919Z, 50.04
2022-09-09T07:31:51.899Z, 49.90
2022-09-09T07:32:52.000Z, 49.85
2022-09-09T07:33:51.984Z, 49.93
2022-09-09T07:34:52.011Z, 50.06
2022-09-09T07:35:52.034Z, 50.13
2022-09-09T07:36:52.067Z, 49.95
2022-09-09T07:37:52.159Z, 50.13
2022-09-09T07:38:52.136Z, 50.08
2022-09-09T07:39:52.314Z, 50.14
2022-09-09T07:40:52.196Z, 50.48
2022-09-09T07:41:52.238Z, 50.73
2022-09-09T07:42:52.325Z, 50.33
2022-09-09T07:43:52.345Z, 50.71
2022-09-09T07:44:52.327Z, 50.13
2022-09-09T07:45:52.402Z, 50.53
2022-09-09T07:46:52.532Z, 50.29
2022-09-09T07:47:52.513Z, 50.32
2022-09-09T07:48:52.521Z, 50.31
2022-09-09T07:49:52.530Z, 49.95
2022-09-09T07:50:52.534Z, 50.66
2022-09-09T07:51:52.571Z, 50.59
2022-09-09T07:52:52.614Z, 50.72
2022-09-09T07:53:52.621Z, 50.17
2022-09-09T07:54:52.730Z, 50.35
2022-09-09T07:55:52.715Z, 50.58
2022-09-09T07:56:52.815Z, 50.21
2022-09-09T07:57:52.801Z, 50.40
2022-09-09T07:58:52.823Z, 50.19
2022-09-09T07:59:52.910Z, 50.33
2022-09-09T08:00:53.979Z, 50.33
2022-09-09T08:01:52.969Z, 50.12
2022-09-09T08:02:53.129Z, 50.19
2022-09-09T08:03:56.444Z, 50.28
2022-09-09T08:04:53.069Z, 50.65
2022-09-09T08:05:53.102Z, 50.47
2022-09-09T08:06:53.071Z, 50.59
2022-09-09T08:07:53.102Z, 50.37
2022-09-09T08:08:53.122Z, 50.62
2022-09-09T08:09:53.233Z, 50.35
2022-09-09T08:10:53.264Z, 50.38
2022-09-09T08:11:53.241Z, 50.48
2022-09-09T08:13:14.791Z, 50.77
2022-09-09T08:13:54.820Z, 50.58
2022-09-09T08:14:55.809Z, 50.28
2022-09-09T08:15:53.505Z, 50.64
2022-09-09T08:16:54.959Z, 50.35
2022-09-09T08:17:53.444Z, 50.60
2022-09-09T08:18:53.487Z, 50.37
2022-09-09T08:19:53.492Z, 50.23
2022-09-09T08:20:53.573Z, 50.65
2022-09-09T08:21:53.583Z, 50.30
2022-09-09T08:22:53.649Z, 50.71
2022-09-09T08:23:57.776Z, 50.27
2022-09-09T08:24:53.693Z, 50.48
2022-09-09T08:25:53.695Z, 50.29
2022-09-09T08:26:53.790Z, 50.48
2022-09-09T08:27:53.840Z, 50.37
2022-09-09T08:28:53.809Z, 50.43
2022-09-09T08:29:53.867Z, 50.76
2022-09-09T08:30:53.929Z, 50.79
2022-09-09T08:31:53.971Z, 50.35
2022-09-09T08:32:54.141Z, 50.54
2022-09-09T08:33:54.032Z, 50.65
2022-09-09T08:34:54.899Z, 50.94
2022-09-09T08:35:54.110Z, 50.45
2022-09-09T08:36:54.055Z, 50.42
2022-09-09T08:37:54.101Z, 50.63
2022-09-09T08:38:54.126Z, 50.77
2022-09-09T08:39:54.485Z, 50.61
2022-09-09T08:40:54.225Z, 50.88
2022-09-09T08:41:54.256Z, 50.36
2022-09-09T08:42:54.344Z, 50.56
2022-09-09T08:43:54.379Z, 50.95
2022-09-09T08:44:54.385Z, 50.72
2022-09-09T08:45:54.375Z, 50.19
2022-09-09T08:46:54.440Z, 50.85
2022-09-09T08:47:54.440Z, 50.86
2022-09-09T08:48:54.497Z, 50.39
2022-09-09T08:49:54.505Z, 50.45
2022-09-09T08:50:54.533Z, 50.51
2022-09-09T08:51:54.561Z, 50.64
2022-09-09T08:52:54.674Z, 50.32
2022-09-09T08:53:59.538Z, 50.54
2022-09-09T08:54:54.654Z, 51.03
2022-09-09T08:55:54.767Z, 50.72
2022-09-09T08:56:54.752Z, 50.65
2022-09-09T08:57:54.828Z, 51.27
2022-09-09T08:58:54.826Z, 51.36
2022-09-09T08:59:54.814Z, 50.66
2022-09-09T09:00:54.872Z, 50.54
2022-09-09T09:01:54.926Z, 51.28
2022-09-09T09:02:54.992Z, 51.33
2022-09-09T09:03:54.967Z, 51.34
2022-09-09T09:04:55.167Z, 51.17
2022-09-09T09:05:54.984Z, 51.32
2022-09-09T09:06:55.017Z, 51.14
2022-09-09T09:07:55.054Z, 51.22
2022-09-09T09:08:55.079Z, 51.33
2022-09-09T09:09:55.114Z, 51.29
2022-09-09T09:10:55.148Z, 51.32
2022-09-09T09:11:55.172Z, 50.83
2022-09-09T09:12:55.203Z, 51.05
2022-09-09T09:13:55.228Z, 51.01
2022-09-09T09:14:55.253Z, 51.30
2022-09-09T09:15:55.353Z, 51.20
2022-09-09T09:16:55.324Z, 51.58
2022-09-09T09:17:55.379Z, 51.20
2022-09-09T09:18:55.472Z, 50.97
2022-09-09T09:19:55.452Z, 51.26
2022-09-09T09:20:55.467Z, 51.19
2022-09-09T09:21:55.500Z, 51.41
2022-09-09T09:22:55.600Z, 51.20
2022-09-09T09:23:55.625Z, 51.37
2022-09-09T09:24:55.683Z, 51.57
2022-09-09T09:25:55.725Z, 51.18
2022-09-09T09:26:55.742Z, 50.77
2022-09-09T09:27:55.735Z, 51.01
2022-09-09T09:28:55.811Z, 51.03
2022-09-09T09:30:22.473Z, 51.57
2022-09-09T09:30:55.931Z, 51.45
2022-09-09T09:31:55.870Z, 51.22
2022-09-09T09:32:55.924Z, 51.06
2022-09-09T09:33:55.963Z, 50.88
2022-09-09T09:34:55.990Z, 50.88
2022-09-09T09:35:56.014Z, 50.87
2022-09-09T09:36:56.118Z, 50.72
2022-09-09T09:40:03.797Z, 51.32
2022-09-09T09:40:56.203Z, 51.25
2022-09-09T09:41:56.232Z, 51.32
2022-09-09T09:42:56.275Z, 51.29
2022-09-09T09:43:56.319Z, 51.54
2022-09-09T09:44:56.397Z, 51.52
2022-09-09T09:46:14.231Z, 51.44
2022-09-09T09:46:56.499Z, 51.06
2022-09-09T09:48:01.262Z, 51.53
2022-09-09T09:48:56.447Z, 50.91
2022-09-09T09:49:56.462Z, 51.23
2022-09-09T09:50:56.491Z, 50.79
2022-09-09T09:51:56.534Z, 50.61
2022-09-09T09:52:56.555Z, 50.57
2022-09-09T09:53:56.569Z, 50.71
2022-09-09T09:54:56.627Z, 50.73
2022-09-09T09:55:56.672Z, 51.58
2022-09-09T09:56:56.751Z, 51.24
2022-09-09T09:57:56.831Z, 51.29
2022-09-09T09:58:56.764Z, 51.01
2022-09-09T09:59:56.799Z, 51.37
2022-09-09T10:00:56.899Z, 50.86
2022-09-09T10:01:56.981Z, 51.17
2022-09-09T10:02:56.954Z, 51.39
2022-09-09T10:03:56.939Z, 51.71
2022-09-09T10:04:57.060Z, 51.57
2022-09-09T10:05:57.064Z, 51.53
2022-09-09T10:06:57.079Z, 51.51
2022-09-09T10:07:57.074Z, 51.49
2022-09-09T10:08:57.080Z, 51.41
2022-09-09T10:09:57.129Z, 51.49
2022-09-09T10:10:57.158Z, 51.44
2022-09-09T10:11:57.184Z, 51.31
2022-09-09T10:12:57.270Z, 51.42
2022-09-09T10:13:57.294Z, 51.35
2022-09-09T10:14:57.362Z, 51.47
2022-09-09T10:15:57.447Z, 51.50
2022-09-09T10:16:57.333Z, 51.01
2022-09-09T10:17:57.382Z, 51.22
2022-09-09T10:18:57.399Z, 51.01
2022-09-09T10:19:57.430Z, 51.01
2022-09-09T10:20:57.516Z, 51.22
2022-09-09T10:21:57.503Z, 51.65
2022-09-09T10:22:57.592Z, 51.72
2022-09-09T10:23:57.619Z, 51.41
2022-09-09T10:24:57.594Z, 51.84
2022-09-09T10:25:57.650Z, 51.25
2022-09-09T10:26:57.663Z, 51.47
2022-09-09T10:28:00.603Z, 51.40
2022-09-09T10:28:57.730Z, 50.91
2022-09-09T10:29:57.759Z, 51.28
2022-09-09T10:30:57.871Z, 51.77
2022-09-09T10:31:57.840Z, 51.53
2022-09-09T10:32:57.961Z, 51.10
2022-09-09T10:33:57.958Z, 51.18
2022-09-09T10:34:57.946Z, 51.38
2022-09-09T10:35:57.969Z, 51.29
2022-09-09T10:36:57.997Z, 79.83
2022-09-09T10:37:58.055Z, 36.93
2022-09-09T10:38:58.087Z, 37.35
2022-09-09T10:39:58.172Z, 37.16
2022-09-09T10:40:58.170Z, 37.50
2022-09-09T10:41:58.180Z, 37.18
2022-09-09T10:42:58.287Z, 37.05
2022-09-09T10:44:00.464Z, 37.04
2022-09-09T10:44:58.355Z, 36.91
2022-09-09T10:45:58.388Z, 37.07
2022-09-09T10:47:01.826Z, 37.09
2022-09-09T10:47:58.417Z, 36.45
2022-09-09T10:48:58.437Z, 36.80
2022-09-09T10:49:58.465Z, 37.35
2022-09-09T10:51:04.369Z, 36.73
2022-09-09T10:51:58.517Z, 36.66
2022-09-09T10:52:58.625Z, 36.22
2022-09-09T10:53:58.735Z, 36.53
2022-09-09T10:54:58.663Z, 36.69
2022-09-09T10:55:58.765Z, 35.57
2022-09-09T10:56:58.782Z, 36.14
2022-09-09T10:57:58.799Z, 36.41
2022-09-09T10:58:58.767Z, 36.03
2022-09-09T10:59:58.798Z, 36.54
2022-09-09T11:00:58.875Z, 36.56
2022-09-09T11:01:58.948Z, 37.24
2022-09-09T11:02:58.933Z, 37.06
2022-09-09T11:03:58.957Z, 37.21
2022-09-09T11:04:59.041Z, 37.01
2022-09-09T11:05:59.067Z, 37.31
2022-09-09T11:06:59.083Z, 37.20
2022-09-09T11:07:59.167Z, 36.68
2022-09-09T11:08:59.138Z, 37.01
2022-09-09T11:09:59.173Z, 36.99
2022-09-09T11:10:59.283Z, 37.40
2022-09-09T11:11:59.352Z, 36.70
2022-09-09T11:12:59.335Z, 36.58
2022-09-09T11:13:59.325Z, 37.05
2022-09-09T11:14:59.391Z, 36.77
2022-09-09T11:15:59.423Z, 36.44
2022-09-09T11:16:59.459Z, 36.36
2022-09-09T11:17:59.446Z, 36.34
2022-09-09T11:18:59.535Z, 36.85
2022-09-09T11:19:59.519Z, 36.75
2022-09-09T11:20:59.566Z, 37.03
2022-09-09T11:21:59.566Z, 37.03
2022-09-09T11:22:59.573Z, 37.01
2022-09-09T11:23:59.616Z, 37.13
2022-09-09T11:24:59.648Z, 36.74
2022-09-09T11:25:59.692Z, 36.90
2022-09-09T11:26:59.802Z, 37.06
2022-09-09T11:27:59.807Z, 36.84
2022-09-09T11:29:04.191Z, 36.80
2022-09-09T11:29:59.818Z, 36.82
2022-09-09T11:30:59.937Z, 36.70
2022-09-09T11:31:59.888Z, 36.48
2022-09-09T11:32:59.943Z, 36.40
2022-09-09T11:33:59.952Z, 36.37
2022-09-09T11:34:59.992Z, 36.31
2022-09-09T11:36:03.154Z, 36.70
2022-09-09T11:37:00.044Z, 36.27
2022-09-09T11:38:00.105Z, 36.26
2022-09-09T11:39:00.134Z, 36.84
2022-09-09T11:40:00.362Z, 35.98
2022-09-09T11:41:00.200Z, 36.03
2022-09-09T11:42:00.260Z, 36.32
2022-09-09T11:43:00.272Z, 36.69
2022-09-09T11:44:00.348Z, 36.09
2022-09-09T11:45:00.320Z, 36.16
2022-09-09T11:46:01.350Z, 36.39
2022-09-09T11:47:00.390Z, 36.38
2022-09-09T11:48:00.481Z, 36.35
2022-09-09T11:49:00.503Z, 36.21
2022-09-09T11:50:00.490Z, 36.16
2022-09-09T11:51:00.509Z, 36.51
2022-09-09T11:52:00.567Z, 36.53
2022-09-09T11:53:00.586Z, 36.55
2022-09-09T11:54:00.657Z, 36.42
2022-09-09T11:55:00.715Z, 36.31
2022-09-09T11:56:00.679Z, 36.61
2022-09-09T11:57:00.691Z, 36.58
2022-09-09T11:58:00.737Z, 36.26
2022-09-09T11:59:00.752Z, 36.15
2022-09-09T12:00:00.778Z, 36.00
2022-09-09T12:01:00.818Z, 36.11
2022-09-09T12:02:00.946Z, 36.37
2022-09-09T12:03:00.906Z, 36.45
2022-09-09T12:04:00.958Z, 36.42
2022-09-09T12:05:00.998Z, 36.56
2022-09-09T12:06:01.046Z, 36.80
2022-09-09T12:07:01.040Z, 36.64
2022-09-09T12:08:01.071Z, 36.55
2022-09-09T12:09:01.091Z, 36.43
2022-09-09T12:10:01.132Z, 36.44
2022-09-09T12:11:01.170Z, 36.82
2022-09-09T12:12:01.197Z, 36.60
2022-09-09T12:13:01.251Z, 36.67
2022-09-09T12:14:01.289Z, 36.69
2022-09-09T12:15:01.355Z, 36.64
2022-09-09T12:16:01.368Z, 37.13
2022-09-09T12:17:01.437Z, 36.52
2022-09-09T12:18:03.431Z, 36.45
2022-09-09T12:19:01.458Z, 36.37
2022-09-09T12:20:01.483Z, 36.65
2022-09-09T12:21:01.568Z, 37.21
2022-09-09T12:22:01.586Z, 36.46
2022-09-09T12:23:01.572Z, 36.71
2022-09-09T12:24:01.598Z, 36.40
2022-09-09T12:25:01.691Z, 37.03
2022-09-09T12:26:02.073Z, 36.14
2022-09-09T12:27:01.778Z, 36.19
2022-09-09T12:28:01.778Z, 36.11
2022-09-09T12:29:01.769Z, 36.13
2022-09-09T12:30:01.818Z, 36.21
2022-09-09T12:31:01.911Z, 36.21